Ana Sayfa
METAR-TAF:

METAR-TAF

Havaalanları :

Schenectady County Airport

Schenectady, New York, Amerika Birleşik Devletleri

Enlem: 42-51N, Boylam: 073-56W, yükseklik: 115 m

Güncel hava durumu gözlemi

Rapor saat 14:45 UTC de 39 dakika önce yapıldı.
Rüzgar batı/güneybatıdan 19 kt ve 22 kt'a kadar ani rüzgarlar
Sıcaklık -2°C
Nem 46%
Basınç 1007 hPa
Görüş mesafesi: 24.1 km
5000 ft yükseklikte çok bulutlu

METAR: KSCH 281445Z 24019G22KT 15SM OVC050 M02/M12 A2973

Saat: 10:24 (15:24 UTC)


TAF: eksik

4.000'den fazla havaalanı için hava durumu gözlemleri ve tahminleri (METAR ve TAF raporları).

Kullanılabilir istasyonlar harita üzerinde sarı ve kırmızı noktalarla gösterilir.

İstasyonun adını görmek için fareyi noktanın üzerinde gezdirin.

Sonrasında hava gözlem ve tahminlerini görmek için tıklayın.

Haritayı değiştirmek için: yaklaştırmak için siyah artı işaretli yeşil düğmeye ve uzaklaştırmak için de eksi işaretli düğmeye hızla tıklayın; bitişik haritalar için yeşil okları kullanın.


METAR-TAF: